Time;durP1;ratioP1;P1;durP2;ratioP2;P2;SDS_P1;SDS_P2;PMS_P1;PMS_P2;Temp;Humidity;BMP_temperature;BMP_pressure;BME280_temperature;BME280_humidity;BME280_pressure;Samples;Min_cycle;Max_cycle;Signal;HPM_P1;HPM_P2
2023/01/27 00:30:36;;;;;;;22.50;18.80;;;;;;;1.68;62.73;100750.10;110358;1278;22223;-89
2023/01/27 00:39:27;;;;;;;22.70;19.10;;;;;;;1.73;63.08;100755.64;110078;1282;22231;-88
2023/01/27 00:44:11;;;;;;;;;;;;;;;;;;;;;
2023/01/27 01:05:19;;;;;;;21.90;19.10;;;;;;;1.76;62.78;100763.73;109756;1284;23339;-89
2023/01/27 01:10:00;;;;;;;;;;;;;;;;;;;;;
2023/01/27 01:14:28;;;;;;;;;;;;;;;;;;;;;
2023/01/27 01:18:37;;;;;;;23.80;20.10;;;;;;;1.97;62.55;100758.84;109339;1293;22186;-90
2023/01/27 01:22:49;;;;;;;21.80;19.50;;;;;;;2.02;62.67;100762.45;109337;1293;22176;-89
2023/01/27 01:31:01;;;;;;;23.60;19.70;;;;;;;2.02;62.57;100759.34;109508;1278;22855;-87
2023/01/27 01:34:54;;;;;;;24.60;20.90;;;;;;;2.01;62.35;100758.08;109515;1291;22169;-88
2023/01/27 01:38:20;;;;;;;23.10;19.80;;;;;;;2.00;62.52;100761.19;109330;1291;22994;-88
2023/01/27 01:50:32;;;;;;;24.80;20.40;;;;;;;1.93;62.72;100760.13;109994;1285;22273;-88
2023/01/27 01:59:55;;;;;;;23.20;20.50;;;;;;;1.86;63.07;100763.88;110037;1284;22162;-88
2023/01/27 02:04:39;;;;;;;;;;;;;;;;;;;;;
2023/01/27 02:11:42;;;;;;;24.70;20.90;;;;;;;1.83;63.36;100760.48;110291;1279;22887;-87
2023/01/27 02:49:24;;;;;;;21.10;18.60;;;;;;;1.69;62.91;100763.67;109386;1295;22154;-89
2023/01/27 03:54:21;;;;;;;21.00;17.30;;;;;;;1.71;61.38;100782.33;110702;1273;22453;-87
2023/01/27 03:58:29;;;;;;;24.50;18.70;;;;;;;1.69;61.25;100776.19;112367;1255;22502;-88
2023/01/27 04:09:59;;;;;;;24.90;20.10;;;;;;;1.72;61.03;100789.48;111160;1269;22561;-90
2023/01/27 04:14:01;;;;;;;22.40;19.70;;;;;;;1.73;61.22;100787.27;110898;1270;22679;-92
2023/01/27 04:18:26;;;;;;;;;;;;;;;;;;;;;
2023/01/27 04:58:05;;;;;;;25.00;20.50;;;;;;;1.70;62.34;100801.55;107407;1279;26660;-88
2023/01/27 05:10:14;;;;;;;24.30;20.10;;;;;;;1.53;62.48;100813.31;106726;1283;22537;-89
2023/01/27 05:35:07;;;;;;;28.50;20.80;;;;;;;1.78;63.14;100830.99;106977;1281;25258;-90
2023/01/27 05:39:29;;;;;;;;;;;;;;;;;;;;;
2023/01/27 05:45:13;;;;;;;27.40;22.40;;;;;;;1.85;62.75;100844.79;113211;1240;22579;-91
2023/01/27 05:48:22;;;;;;;26.70;22.20;;;;;;;1.89;62.89;100841.78;112346;1256;22427;-88
2023/01/27 05:51:16;;;;;;;23.70;20.10;;;;;;;1.93;62.79;100839.14;111597;1262;22403;-85
2023/01/27 05:54:04;;;;;;;28.80;23.20;;;;;;;1.89;62.67;100836.75;111747;1262;22275;-92
2023/01/27 05:56:34;;;;;;;27.90;22.30;;;;;;;1.87;62.59;100842.58;111777;1262;22325;-89
2023/01/27 05:59:30;;;;;;;27.40;21.80;;;;;;;1.86;62.63;100840.82;111913;1262;23196;-90
2023/01/27 06:02:04;;;;;;;27.50;21.90;;;;;;;1.86;62.70;100846.21;111392;1266;23169;-87
2023/01/27 06:04:31;;;;;;;26.10;22.10;;;;;;;1.87;62.73;100842.74;111430;1266;22176;-87
2023/01/27 06:06:59;;;;;;;28.20;22.60;;;;;;;1.85;62.73;100847.73;111106;1266;22330;-88
2023/01/27 06:09:26;;;;;;;27.10;22.70;;;;;;;1.87;62.90;100854.05;111495;1266;22430;-87
2023/01/27 06:11:53;;;;;;;28.30;22.40;;;;;;;1.89;62.97;100854.80;111498;1260;23072;-87
2023/01/27 06:14:22;;;;;;;31.70;24.30;;;;;;;1.88;62.97;100862.42;112174;1260;22352;-88
2023/01/27 06:16:52;;;;;;;29.60;24.00;;;;;;;1.88;63.06;100863.10;112196;1260;22970;-87
2023/01/27 06:19:20;;;;;;;28.00;23.80;;;;;;;1.88;63.06;100866.95;112269;1257;22464;-87
2023/01/27 06:21:51;;;;;;;28.80;22.30;;;;;;;1.86;63.09;100872.41;112512;1257;22333;-88
2023/01/27 06:24:18;;;;;;;30.70;23.00;;;;;;;1.88;63.26;100875.45;112429;1257;22415;-87
2023/01/27 06:26:47;;;;;;;28.30;23.50;;;;;;;1.92;63.25;100879.41;112455;1257;22376;-88
2023/01/27 06:29:15;;;;;;;30.90;24.40;;;;;;;1.89;63.24;100878.25;112919;1249;22243;-87
2023/01/27 06:31:42;;;;;;;30.30;25.00;;;;;;;1.86;63.47;100884.58;112845;1249;22936;-87
2023/01/27 06:34:09;;;;;;;35.70;26.20;;;;;;;1.85;63.62;100887.69;112966;1249;22306;-87
2023/01/27 06:36:35;;;;;;;37.00;26.20;;;;;;;1.85;63.81;100882.48;112881;1249;22273;-86
2023/01/27 06:39:03;;;;;;;35.50;27.00;;;;;;;1.88;64.05;100885.67;112838;1249;22652;-86
2023/01/27 06:41:29;;;;;;;36.30;28.50;;;;;;;1.87;64.03;100891.38;113036;1249;22368;-87
2023/01/27 06:43:57;;;;;;;35.40;29.20;;;;;;;1.89;64.16;100894.21;113059;1249;22300;-87
2023/01/27 06:46:25;;;;;;;39.30;30.20;;;;;;;1.89;64.19;100892.84;112490;1256;22300;-86
2023/01/27 06:48:52;;;;;;;40.80;31.60;;;;;;;1.89;64.34;100895.98;112408;1256;23145;-88
2023/01/27 06:51:20;;;;;;;41.00;31.70;;;;;;;1.92;64.32;100897.30;112456;1256;22318;-88
2023/01/27 06:54:06;;;;;;;42.70;33.10;;;;;;;1.96;64.50;100894.31;111784;1263;22562;-86
2023/01/27 07:00:04;;;;;;;43.10;31.80;;;;;;;2.01;64.42;100899.69;107819;1305;558215;-86
2023/01/27 07:02:32;;;;;;;42.80;33.00;;;;;;;1.99;64.35;100902.23;108453;1287;22544;-87
2023/01/27 07:05:43;;;;;;;46.40;33.70;;;;;;;2.02;64.43;100901.09;107003;1287;22242;-88
2023/01/27 07:08:36;;;;;;;49.30;35.60;;;;;;;2.04;64.32;100899.44;107104;1305;545060;-85
2023/01/27 07:11:09;;;;;;;55.70;38.10;;;;;;;2.05;64.30;100898.77;109064;1287;23010;-87
2023/01/27 07:13:38;;;;;;;54.40;37.40;;;;;;;2.05;64.50;100899.64;106549;1284;22551;-86
2023/01/27 07:16:09;;;;;;;54.60;38.60;;;;;;;2.08;64.56;100902.71;106646;1287;25883;-88
2023/01/27 07:18:42;;;;;;;51.80;38.80;;;;;;;2.05;64.47;100895.13;106345;1292;24581;-85
2023/01/27 07:21:17;;;;;;;53.70;39.70;;;;;;;2.02;64.45;100895.39;103673;1290;3494831;-86
2023/01/27 07:23:47;;;;;;;57.20;39.40;;;;;;;2.04;64.75;100898.91;106362;1290;22534;-88
2023/01/27 07:27:01;;;;;;;51.20;37.00;;;;;;;2.06;64.87;100902.46;106476;1290;22721;-86
2023/01/27 07:29:32;;;;;;;52.40;38.80;;;;;;;2.04;64.90;100905.86;106733;1295;22552;-87
2023/01/27 07:31:59;;;;;;;55.90;38.60;;;;;;;2.02;65.09;100907.35;107954;1295;22548;-86
2023/01/27 07:34:29;;;;;;;52.70;39.50;;;;;;;2.02;65.11;100905.27;108257;1298;22911;-86
2023/01/27 07:36:56;;;;;;;55.40;38.70;;;;;;;2.05;65.26;100904.17;108438;1296;23506;-86
2023/01/27 07:39:25;;;;;;;51.80;36.90;;;;;;;2.08;65.21;100904.45;109107;1288;22586;-86
2023/01/27 07:41:53;;;;;;;48.30;36.00;;;;;;;2.14;64.98;100906.73;109015;1288;22583;-86
2023/01/27 07:44:21;;;;;;;51.10;37.40;;;;;;;2.22;65.04;100905.25;106935;1292;22558;-86
2023/01/27 07:46:50;;;;;;;57.80;37.80;;;;;;;2.30;64.82;100906.89;106073;1287;22625;-86
2023/01/27 07:55:59;;;;;;;49.50;37.20;;;;;;;2.45;64.42;100903.37;104093;1308;559651;-87
2023/01/27 07:58:31;;;;;;;47.50;35.90;;;;;;;2.41;64.14;100910.21;106357;1283;22520;-87
2023/01/27 08:01:04;;;;;;;45.50;36.00;;;;;;;2.40;64.16;100916.07;106186;1292;22549;-86
2023/01/27 08:03:32;;;;;;;48.30;35.80;;;;;;;2.39;64.20;100915.02;109172;1293;23013;-86
2023/01/27 08:06:04;;;;;;;46.40;36.00;;;;;;;2.40;64.19;100912.60;109277;1290;22164;-86
2023/01/27 08:08:31;;;;;;;44.40;32.70;;;;;;;2.43;64.17;100914.65;109062;1287;245422;-87
2023/01/27 08:11:01;;;;;;;44.60;35.10;;;;;;;2.42;63.71;100914.23;109350;1290;23152;-87
2023/01/27 08:13:28;;;;;;;45.10;34.40;;;;;;;2.44;63.69;100916.05;109255;1290;22392;-86
2023/01/27 08:15:59;;;;;;;44.70;35.10;;;;;;;2.43;63.68;100911.67;109335;1291;22158;-87
2023/01/27 08:18:27;;;;;;;43.20;32.60;;;;;;;2.46;63.67;100913.70;109326;1284;22308;-86
2023/01/27 08:20:58;;;;;;;41.00;32.10;;;;;;;2.47;63.64;100913.02;109924;1280;22143;-87
2023/01/27 08:23:24;;;;;;;40.90;33.10;;;;;;;2.52;63.51;100912.83;109998;1280;22375;-87
2023/01/27 08:26:13;;;;;;;43.00;31.80;;;;;;;2.53;63.15;100919.28;109814;1286;23021;-88
2023/01/27 08:28:41;;;;;;;40.70;30.90;;;;;;;2.53;62.91;100922.91;109865;1285;22177;-87
2023/01/27 08:31:12;;;;;;;38.90;31.40;;;;;;;2.54;62.79;100926.58;109777;1285;22164;-85
2023/01/27 08:33:41;;;;;;;34.90;28.30;;;;;;;2.51;62.74;100929.11;109722;1285;22155;-87
2023/01/27 08:36:15;;;;;;;34.30;27.30;;;;;;;2.51;62.51;100930.86;109884;1286;22180;-86
2023/01/27 08:38:44;;;;;;;36.40;27.10;;;;;;;2.53;62.39;100933.01;109786;1280;22938;-86
2023/01/27 08:41:14;;;;;;;36.60;28.20;;;;;;;2.57;62.36;100933.52;109723;1285;22132;-85
2023/01/27 08:43:45;;;;;;;31.80;26.40;;;;;;;2.63;62.09;100931.27;109798;1264;22209;-87
2023/01/27 08:46:14;;;;;;;32.30;26.00;;;;;;;2.71;62.07;100932.02;110389;1276;22571;-88
2023/01/27 08:48:41;;;;;;;34.80;26.90;;;;;;;2.79;61.84;100932.27;110262;1276;22111;-88
2023/01/27 08:51:10;;;;;;;35.50;27.00;;;;;;;2.85;61.82;100931.59;110120;1276;22878;-87
2023/01/27 08:53:36;;;;;;;37.90;27.50;;;;;;;2.93;61.74;100928.00;109946;1274;22950;-87
2023/01/27 08:56:07;;;;;;;36.50;27.70;;;;;;;3.00;61.55;100937.96;109985;1282;22152;-89
2023/01/27 08:58:34;;;;;;;35.10;26.70;;;;;;;3.03;61.52;100937.54;109557;1289;22176;-88
2023/01/27 09:01:05;;;;;;;34.60;28.50;;;;;;;3.09;61.38;100943.29;109216;1294;22390;-85
2023/01/27 09:03:37;;;;;;;39.40;29.10;;;;;;;3.15;61.33;100934.77;109169;1295;23032;-88
2023/01/27 09:06:11;;;;;;;35.70;28.00;;;;;;;3.19;61.19;100940.27;108938;1295;22374;-86
2023/01/27 09:09:10;;;;;;;40.20;29.20;;;;;;;3.22;60.92;100941.23;109005;1295;22185;-88
2023/01/27 09:11:43;;;;;;;39.00;29.70;;;;;;;3.20;60.46;100942.03;109196;1289;22193;-87
2023/01/27 09:14:12;;;;;;;35.00;27.10;;;;;;;3.18;60.73;100939.52;109792;1284;22214;-88
2023/01/27 09:16:40;;;;;;;34.20;28.20;;;;;;;3.19;60.76;100936.13;109867;1280;22216;-89
2023/01/27 09:19:08;;;;;;;36.20;28.10;;;;;;;3.20;60.68;100933.70;110352;1274;22829;-87
2023/01/27 09:21:34;;;;;;;34.80;28.30;;;;;;;3.20;60.65;100931.79;110494;1274;23125;-83
2023/01/27 09:24:03;;;;;;;33.70;25.40;;;;;;;3.21;60.39;100926.59;110713;1274;22095;-87
2023/01/27 09:26:32;;;;;;;33.90;26.10;;;;;;;3.18;60.28;100927.20;110754;1274;22155;-84
2023/01/27 09:29:39;;;;;;;34.30;25.60;;;;;;;3.22;60.27;100926.43;110709;1274;22117;-88
2023/01/27 09:32:29;;;;;;;35.50;27.00;;;;;;;3.21;60.19;100930.59;110866;1274;22902;-87
2023/01/27 09:35:57;;;;;;;34.60;25.90;;;;;;;3.20;60.03;100931.27;110464;1278;22193;-85
2023/01/27 09:38:39;;;;;;;32.40;25.50;;;;;;;3.20;60.06;100928.30;110496;1277;22124;-86
2023/01/27 09:42:07;;;;;;;38.30;26.00;;;;;;;3.28;60.28;100934.09;110350;1277;22399;-87
2023/01/27 09:45:48;;;;;;;32.20;25.50;;;;;;;3.33;59.87;100937.71;110458;1277;22138;-85
2023/01/27 09:49:01;;;;;;;35.00;25.10;;;;;;;3.35;59.76;100936.56;108869;1297;22162;-88
2023/01/27 09:51:57;;;;;;;26.80;23.60;;;;;;;3.32;59.30;100935.43;108874;1297;22186;-86
2023/01/27 09:54:52;;;;;;;32.10;24.70;;;;;;;3.34;59.46;100934.27;107767;1306;22155;-85
2023/01/27 09:57:40;;;;;;;30.50;23.80;;;;;;;3.37;59.55;100932.80;107921;1306;22191;-86
2023/01/27 10:00:25;;;;;;;31.80;25.60;;;;;;;3.43;59.55;100938.73;107810;1306;22344;-86
2023/01/27 10:03:46;;;;;;;33.10;24.00;;;;;;;3.49;59.68;100937.66;107813;1306;22189;-86
2023/01/27 10:07:09;;;;;;;27.60;24.60;;;;;;;3.56;59.67;100931.05;108034;1301;22163;-87
2023/01/27 10:10:31;;;;;;;33.70;24.80;;;;;;;3.52;59.30;100933.73;108406;1301;22241;-86
2023/01/27 10:13:53;;;;;;;33.80;25.00;;;;;;;3.50;59.06;100936.13;108710;1296;22176;-86
2023/01/27 10:16:37;;;;;;;36.50;26.40;;;;;;;3.51;59.17;100936.84;108373;1295;22532;-85
2023/01/27 10:19:31;;;;;;;31.50;25.00;;;;;;;3.53;59.15;100937.09;108354;1302;22987;-86
2023/01/27 10:22:29;;;;;;;36.20;25.60;;;;;;;3.51;59.04;100938.59;107463;1309;22187;-86
2023/01/27 10:25:22;;;;;;;30.00;24.40;;;;;;;3.52;59.18;100939.84;107576;1303;23036;-85
2023/01/27 10:27:57;;;;;;;32.30;24.70;;;;;;;3.48;59.05;100944.42;107717;1307;22243;-86
2023/01/27 10:30:49;;;;;;;30.60;22.30;;;;;;;3.49;59.03;100947.58;107752;1307;22185;-84
2023/01/27 10:33:38;;;;;;;30.60;25.40;;;;;;;3.44;59.01;100948.17;108446;1301;22213;-85
2023/01/27 10:36:54;;;;;;;29.00;23.80;;;;;;;3.45;59.36;100954.97;108025;1305;22190;-86
2023/01/27 10:39:45;;;;;;;32.60;25.50;;;;;;;3.47;59.25;100959.37;107455;1305;22225;-84
2023/01/27 10:42:35;;;;;;;33.50;25.00;;;;;;;3.48;59.22;100960.11;108035;1304;22203;-88
2023/01/27 10:45:23;;;;;;;37.90;21.40;;;;;;;3.49;59.11;100961.86;107819;1305;22279;-87
2023/01/27 10:48:12;;;;;;;29.70;24.30;;;;;;;3.47;59.13;100961.46;107514;1310;22184;-84
2023/01/27 10:51:00;;;;;;;27.70;23.60;;;;;;;3.48;59.36;100964.80;107508;1310;22195;-85
2023/01/27 10:54:03;;;;;;;35.20;26.40;;;;;;;3.49;59.25;100966.72;107863;1299;23054;-85
2023/01/27 10:56:35;;;;;;;34.40;26.10;;;;;;;3.33;58.79;100973.59;108280;1302;22191;-86
2023/01/27 10:59:47;;;;;;;34.10;25.10;;;;;;;3.13;59.03;100970.04;107925;1302;22164;-86
2023/01/27 11:03:00;;;;;;;34.80;24.70;;;;;;;3.08;59.76;100973.36;108345;1298;23002;-85
2023/01/27 11:05:47;;;;;;;31.00;24.20;;;;;;;3.08;59.59;100975.11;108763;1297;22210;-88
2023/01/27 11:08:37;;;;;;;30.00;23.60;;;;;;;3.09;59.76;100976.70;109042;1296;22277;-87
2023/01/27 11:12:49;;;;;;;29.50;22.00;;;;;;;3.13;59.87;100969.00;109098;1293;22243;-88
2023/01/27 11:17:02;;;;;;;27.30;22.00;;;;;;;3.16;59.73;100960.36;109548;1289;22198;-87
2023/01/27 11:20:37;;;;;;;29.70;24.20;;;;;;;3.23;60.11;100953.27;109783;1288;22869;-88
2023/01/27 11:24:12;;;;;;;30.30;24.70;;;;;;;3.32;60.20;100944.30;109598;1292;22190;-86
2023/01/27 11:27:41;;;;;;;32.90;25.90;;;;;;;3.34;60.07;100940.55;108844;1301;22237;-89
2023/01/27 11:31:54;;;;;;;36.90;28.20;;;;;;;3.37;60.43;100940.61;106828;1323;22295;-91
2023/01/27 11:35:10;;;;;;;36.80;28.20;;;;;;;3.41;60.79;100942.85;106618;1308;22227;-86
2023/01/27 11:45:09;;;;;;;37.80;28.20;;;;;;;3.41;60.95;100943.00;106449;1323;22372;-88
2023/01/27 11:48:23;;;;;;;33.20;25.20;;;;;;;3.38;61.08;100936.11;106555;1323;22258;-89
2023/01/27 11:51:01;;;;;;;33.80;27.70;;;;;;;3.40;61.25;100940.70;106687;1322;22197;-88
2023/01/27 11:54:26;;;;;;;32.10;27.10;;;;;;;3.50;61.39;100940.97;106692;1324;22186;-88
2023/01/27 11:57:57;;;;;;;31.70;23.90;;;;;;;3.57;61.30;100939.63;106662;1323;22239;-89
2023/01/27 12:12:39;;;;;;;30.10;25.80;;;;;;;3.65;60.87;100935.34;107190;1318;22067;-90
2023/01/27 12:15:14;;;;;;;36.90;28.60;;;;;;;3.67;60.91;100937.48;106146;1324;21971;-88
2023/01/27 12:17:54;;;;;;;24.00;18.90;;;;;;;3.67;60.97;100940.45;106216;1329;22171;-87
2023/01/27 12:20:42;;;;;;;35.00;27.70;;;;;;;3.68;61.10;100938.02;106146;1329;22275;-87
2023/01/27 12:26:00;;;;;;;37.60;28.40;;;;;;;3.70;61.08;100937.36;107083;1306;544836;-93
2023/01/27 12:31:59;;;;;;;36.00;28.80;;;;;;;3.63;61.16;100941.55;109498;1293;22563;-91
2023/01/27 12:35:36;;;;;;;36.80;29.80;;;;;;;3.60;61.32;100933.27;109331;1292;22738;-89
2023/01/27 12:38:23;;;;;;;35.00;26.80;;;;;;;3.54;61.45;100934.66;106086;1296;2914690;-90
2023/01/27 12:42:53;;;;;;;38.90;30.50;;;;;;;3.54;61.93;100933.80;108207;1294;22120;-90
2023/01/27 12:45:37;;;;;;;37.40;29.40;;;;;;;3.58;62.27;100934.95;105775;1305;22627;-90
2023/01/27 12:48:30;;;;;;;37.80;29.90;;;;;;;3.60;62.40;100935.36;105254;1302;22625;-90
2023/01/27 12:52:43;;;;;;;40.70;30.80;;;;;;;3.60;62.68;100939.02;106208;1304;25416;-93
2023/01/27 12:56:20;;;;;;;39.10;30.50;;;;;;;3.62;62.91;100935.92;105377;1304;22594;-83
2023/01/27 13:02:39;;;;;;;46.90;35.40;;;;;;;3.67;63.24;100943.21;107191;1280;22543;-91
2023/01/27 13:06:28;;;;;;;46.20;33.30;;;;;;;3.67;63.73;100947.23;107045;1291;22565;-91
2023/01/27 13:10:45;;;;;;;41.10;32.90;;;;;;;3.81;64.40;100947.59;107129;1291;22556;-92
2023/01/27 13:15:02;;;;;;;45.70;34.10;;;;;;;3.86;64.24;100947.58;105477;1303;22563;-92
2023/01/27 13:18:48;;;;;;;43.20;32.20;;;;;;;3.91;64.28;100942.84;105427;1303;25476;-91
2023/01/27 13:27:15;;;;;;;;;;;;;;;;;;;;;
2023/01/27 13:42:48;;;;;;;48.70;36.30;;;;;;;3.73;65.22;100948.44;104012;1328;22605;-91
2023/01/27 13:47:02;;;;;;;47.50;35.50;;;;;;;3.81;65.06;100944.98;104445;1328;22318;-90
2023/01/27 13:51:14;;;;;;;;;;;;;;;;;;;;;
2023/01/27 13:55:21;;;;;;;46.20;34.70;;;;;;;3.81;64.88;100951.96;108936;1299;22286;-91
2023/01/27 13:59:08;;;;;;;50.20;35.90;;;;;;;3.79;65.14;100953.64;107552;1308;22324;-89
2023/01/27 14:08:00;;;;;;;47.80;34.40;;;;;;;3.65;65.09;100953.77;100112;1326;24750;-91
2023/01/27 14:12:14;;;;;;;47.30;34.20;;;;;;;3.48;65.42;100963.42;104391;1330;22597;-91
2023/01/27 14:21:04;;;;;;;52.40;36.50;;;;;;;3.35;65.99;100964.60;105897;1300;559452;-91
2023/01/27 14:25:36;;;;;;;52.70;36.60;;;;;;;3.20;66.17;100966.60;109340;1279;22575;-91
2023/01/27 14:29:29;;;;;;;51.00;36.90;;;;;;;3.22;66.32;100970.14;108871;1279;22520;-91
2023/01/27 14:46:05;;;;;;;49.60;36.30;;;;;;;3.13;67.08;100969.00;107823;1296;23007;-92
2023/01/27 15:03:34;;;;;;;48.00;33.80;;;;;;;2.91;67.64;100964.30;105247;1308;22564;-92
2023/01/27 15:07:46;;;;;;;;;;;;;;;;;;;;;
2023/01/27 15:19:42;;;;;;;50.80;35.90;;;;;;;2.80;68.02;100981.02;105694;1311;22574;-90
2023/01/27 15:28:14;;;;;;;54.00;37.00;;;;;;;2.67;68.34;100985.83;105022;1311;22717;-90
2023/01/27 15:32:08;;;;;;;51.50;35.50;;;;;;;2.72;68.43;100980.75;104618;1313;22572;-88
2023/01/27 15:36:34;;;;;;;49.90;36.20;;;;;;;2.74;68.34;100989.17;107036;1310;22592;-90
2023/01/27 15:40:29;;;;;;;;;;;;;;;;;;;;;
2023/01/27 15:44:29;;;;;;;50.00;36.70;;;;;;;2.78;68.42;100994.16;106322;1307;22692;-89
2023/01/27 15:48:06;;;;;;;;;;;;;;;2.77;68.32;101001.60;106522;1304;23877;-87
2023/01/27 15:50:55;;;;;;;;;;;;;;;2.74;68.53;101001.52;106153;1304;25322;-83
2023/01/27 15:54:11;;;;;;;53.90;37.70;;;;;;;2.70;68.58;100998.63;106256;1305;22579;-87
2023/01/27 15:58:05;;;;;;;58.10;36.30;;;;;;;2.71;68.62;101003.34;107383;1309;22737;-88
2023/01/27 16:02:06;;;;;;;54.90;38.40;;;;;;;2.67;68.45;101002.86;106964;1304;22724;-89
2023/01/27 16:05:56;;;;;;;49.30;33.70;;;;;;;2.63;68.57;100998.22;106303;1311;22603;-90
2023/01/27 16:09:42;;;;;;;50.70;36.90;;;;;;;2.64;68.85;101002.21;105844;1310;23264;-89
2023/01/27 16:13:44;;;;;;;;;;;;;;;;;;;;;
2023/01/27 16:17:24;;;;;;;49.00;36.80;;;;;;;2.65;68.92;101010.96;106852;1309;22198;-88
2023/01/27 16:21:18;;;;;;;52.10;36.50;;;;;;;2.59;68.89;101006.61;106464;1311;22814;-91
2023/01/27 16:24:27;;;;;;;53.10;37.80;;;;;;;2.56;69.23;101015.55;105797;1311;22187;-91
2023/01/27 16:28:08;;;;;;;52.50;37.10;;;;;;;2.57;69.22;101016.98;105732;1312;22566;-91
2023/01/27 16:32:24;;;;;;;51.60;36.40;;;;;;;2.52;69.36;101022.88;105399;1316;25462;-91
2023/01/27 16:36:29;;;;;;;54.10;38.20;;;;;;;2.55;69.52;101018.45;104675;1317;22715;-90
2023/01/27 16:41:10;;;;;;;;;;;;;;;;;;;;;
2023/01/27 16:44:44;;;;;;;58.80;40.90;;;;;;;2.58;69.79;101024.64;104315;1318;22585;-90
2023/01/27 16:49:04;;;;;;;55.00;40.20;;;;;;;2.62;69.61;101024.62;104309;1313;558170;-89
2023/01/27 16:52:56;;;;;;;58.70;40.60;;;;;;;2.61;70.03;101032.94;106421;1291;25359;-91
2023/01/27 16:57:05;;;;;;;55.20;39.60;;;;;;;2.55;69.99;101027.17;106497;1296;25784;-90
2023/01/27 17:01:03;;;;;;;64.90;41.80;;;;;;;2.53;70.15;101027.42;106496;1288;22579;-90
2023/01/27 17:05:23;;;;;;;60.20;40.70;;;;;;;2.50;70.28;101029.78;102383;1293;22654;-88
2023/01/27 17:09:37;;;;;;;60.60;41.00;;;;;;;2.50;70.26;101027.70;105919;1300;22553;-88
2023/01/27 17:13:49;;;;;;;63.80;41.00;;;;;;;2.46;70.43;101032.42;106041;1299;22553;-89
2023/01/27 17:17:58;;;;;;;54.80;38.90;;;;;;;2.50;70.67;101034.98;106057;1302;22751;-89
2023/01/27 17:22:11;;;;;;;62.30;40.70;;;;;;;2.51;70.77;101035.35;106343;1302;22555;-86
2023/01/27 17:26:17;;;;;;;60.40;41.20;;;;;;;2.49;70.65;101032.52;105598;1306;22875;-88
2023/01/27 17:30:23;;;;;;;56.50;38.30;;;;;;;2.53;70.77;101033.02;105462;1305;22512;-90
2023/01/27 17:34:28;;;;;;;52.60;38.90;;;;;;;2.57;70.77;101036.61;107300;1301;22194;-88
2023/01/27 17:38:47;;;;;;;60.50;41.50;;;;;;;2.60;70.88;101037.08;106470;1299;22883;-89
2023/01/27 17:42:57;;;;;;;58.00;39.70;;;;;;;2.54;71.24;101036.52;107051;1292;22576;-90
2023/01/27 17:47:09;;;;;;;51.60;37.40;;;;;;;2.54;71.36;101035.29;106638;1287;22540;-89
2023/01/27 17:51:19;;;;;;;60.90;38.80;;;;;;;2.47;71.58;101035.59;106642;1287;24226;-89
2023/01/27 17:55:26;;;;;;;54.40;36.70;;;;;;;2.48;71.72;101039.45;106543;1287;26515;-91
2023/01/27 17:59:36;;;;;;;55.60;36.30;;;;;;;2.51;71.92;101041.98;105577;1303;22643;-87
2023/01/27 18:03:52;;;;;;;49.30;35.40;;;;;;;2.51;72.07;101042.48;105295;1301;22670;-88
2023/01/27 18:07:42;;;;;;;45.60;32.80;;;;;;;2.45;71.95;101045.27;105548;1299;24299;-89
2023/01/27 18:12:08;;;;;;;48.50;32.70;;;;;;;2.43;72.30;101046.23;105508;1299;22552;-89
2023/01/27 18:16:29;;;;;;;43.10;31.00;;;;;;;2.39;72.24;101052.17;104988;1301;25299;-89
2023/01/27 18:20:46;;;;;;;44.10;31.40;;;;;;;2.39;72.54;101050.08;104080;1314;24420;-91
2023/01/27 18:24:36;;;;;;;41.90;31.90;;;;;;;2.43;72.73;101050.21;103905;1314;22587;-89
2023/01/27 18:28:27;;;;;;;44.00;29.00;;;;;;;2.44;72.67;101053.05;103695;1319;25450;-89
2023/01/27 18:32:39;;;;;;;44.50;29.70;;;;;;;2.41;72.64;101055.88;103541;1319;23289;-89
2023/01/27 18:36:17;;;;;;;38.10;27.70;;;;;;;2.39;72.81;101055.83;103026;1313;22960;-89
2023/01/27 18:40:23;;;;;;;42.00;28.40;;;;;;;2.45;72.66;101057.26;104029;1314;557606;-88
2023/01/27 18:44:34;;;;;;;41.10;28.10;;;;;;;2.41;72.76;101065.30;106998;1279;25418;-89
2023/01/27 18:48:47;;;;;;;41.20;28.60;;;;;;;2.46;73.07;101068.77;106616;1285;25231;-89
2023/01/27 18:52:55;;;;;;;38.00;27.00;;;;;;;2.46;72.73;101068.58;102974;1279;5441587;-88
2023/01/27 18:56:31;;;;;;;;;;;;;;;;;;;;;
2023/01/27 19:00:46;;;;;;;;;;;;;;;;;;;;;
2023/01/27 19:04:52;;;;;;;33.60;24.90;;;;;;;2.33;72.97;101089.16;106782;1293;25539;-93
2023/01/27 19:08:25;;;;;;;;;;;;;;;2.38;73.12;101097.33;106281;1296;22497;-89
2023/01/27 19:12:42;;;;;;;33.60;22.60;;;;;;;2.40;73.16;101093.25;105417;1301;25316;-89
2023/01/27 19:17:07;;;;;;;32.70;24.10;;;;;;;2.36;73.26;101100.56;105780;1304;22630;-90
2023/01/27 19:21:24;;;;;;;35.60;25.40;;;;;;;2.34;73.22;101097.90;105582;1307;22898;-91
2023/01/27 19:29:11;;;;;;;33.80;24.80;;;;;;;2.32;73.34;101103.58;107095;1310;22597;-92
2023/01/27 19:33:23;;;;;;;;;;;;;;;;;;;;;
2023/01/27 19:37:00;;;;;;;38.70;24.80;;;;;;;2.34;73.54;101114.94;107124;1304;22516;-90
2023/01/27 19:41:01;;;;;;;32.50;23.40;;;;;;;2.43;73.59;101114.55;107654;1294;23091;-89
2023/01/27 19:44:56;;;;;;;33.00;24.90;;;;;;;2.47;73.41;101115.94;107317;1299;22217;-92
2023/01/27 19:48:42;;;;;;;36.30;24.10;;;;;;;2.45;73.24;101119.15;106989;1306;22254;-91
2023/01/27 19:52:53;;;;;;;37.60;25.90;;;;;;;2.42;73.35;101122.51;106159;1315;22945;-91
2023/01/27 19:56:47;;;;;;;34.20;23.60;;;;;;;2.39;73.21;101127.98;105941;1320;22663;-91
2023/01/27 20:01:20;;;;;;;31.90;23.70;;;;;;;2.44;73.27;101129.04;106938;1304;560509;-90
2023/01/27 20:05:07;;;;;;;29.40;22.60;;;;;;;2.45;73.29;101129.74;108781;1295;22814;-90
2023/01/27 20:09:15;;;;;;;29.80;22.50;;;;;;;2.40;73.20;101131.64;108740;1297;22890;-90
2023/01/27 20:13:24;;;;;;;29.30;22.10;;;;;;;2.33;73.27;101135.76;104827;1288;5530305;-90
2023/01/27 20:21:59;;;;;;;34.20;24.30;;;;;;;2.35;73.50;101146.23;107002;1313;557999;-91
2023/01/27 20:28:58;;;;;;;33.70;24.70;;;;;;;2.34;73.25;101157.85;86543;1292;22907;-91
2023/01/27 20:36:09;;;;;;;;;;;;;;;2.30;73.65;101158.06;105976;1267;5004370;-91
2023/01/27 20:40:10;;;;;;;31.50;22.00;;;;;;;2.28;73.77;101161.46;86894;1282;22957;-89
2023/01/27 20:46:58;;;;;;;31.00;23.50;;;;;;;2.30;73.59;101160.83;86846;1285;22888;-89
2023/01/27 20:54:22;;;;;;;33.20;23.70;;;;;;;2.32;73.64;101159.51;110286;1280;22560;-90
2023/01/27 20:58:33;;;;;;;30.40;22.60;;;;;;;2.25;73.60;101162.39;109330;1287;22861;-92
2023/01/27 21:02:42;;;;;;;32.60;22.70;;;;;;;2.24;73.65;101159.76;107620;1299;23959;-93
2023/01/27 21:14:38;;;;;;;33.10;24.30;;;;;;;2.24;74.03;101161.67;109915;1282;22134;-91
2023/01/27 21:22:15;;;;;;;33.00;24.50;;;;;;;2.20;73.76;101156.81;109790;1273;22586;-91
2023/01/27 21:26:44;;;;;;;;;;;;;;;;;;;;;
2023/01/27 21:30:27;;;;;;;35.30;23.90;;;;;;;2.27;73.88;101156.05;109626;1280;22132;-89
2023/01/27 21:34:16;;;;;;;33.10;24.50;;;;;;;2.22;73.39;101156.91;109509;1280;22258;-88
2023/01/27 21:46:23;;;;;;;36.80;25.10;;;;;;;2.17;73.91;101156.70;108867;1291;22508;-87
2023/01/27 21:50:38;;;;;;;34.20;24.90;;;;;;;2.18;73.69;101151.19;106848;1291;22630;-89
2023/01/27 21:54:58;;;;;;;32.40;24.50;;;;;;;2.24;73.81;101159.75;106214;1293;23837;-89
2023/01/27 21:59:18;;;;;;;35.00;24.50;;;;;;;2.26;73.79;101147.84;106264;1300;25620;-89
2023/01/27 22:03:04;;;;;;;34.40;24.50;;;;;;;2.25;73.54;101147.61;106063;1299;25316;-89
2023/01/27 22:07:18;;;;;;;32.10;22.90;;;;;;;2.13;73.61;101143.88;106393;1302;26118;-89
2023/01/27 22:11:41;;;;;;;34.80;24.80;;;;;;;2.12;73.79;101137.75;106970;1302;22547;-90
2023/01/27 22:15:17;;;;;;;33.90;24.50;;;;;;;2.13;73.78;101137.44;106638;1298;22622;-90
2023/01/27 22:19:16;;;;;;;32.70;23.50;;;;;;;2.15;73.76;101131.08;106989;1302;23902;-89
2023/01/27 22:23:08;;;;;;;30.70;23.50;;;;;;;2.15;73.69;101127.29;107576;1296;22571;-90